Terminal Aerodrome Forecast
Issued by NWS

Home | Current Version | Previous Version | Text Only | Print | Product List | Glossary On
Versions: 1 2 3 4 5 6 7 8 9 10 11 12 13 14 15 16 17 18 19 20 21 22
000
FTUS41 KBTV 062320
TAFSLK
TAF
KSLK 062320Z 0700/0724 24009KT P6SM VCSH OVC025
      TEMPO 0700/0703 4SM -SHSN OVC015
     FM071300 25008KT P6SM OVC020
     FM071700 21007KT P6SM VCSH OVC025
     FM072000 VRB03KT P6SM OVC040=

USA.gov is the U.S. government's official web portal to all federal, state and local government web resources and services.